createdAt,value
2023-05-20T00:00:53.170Z,9.14
2023-05-20T00:01:53.129Z,9.14
2023-05-20T00:02:53.216Z,9.14
2023-05-20T00:03:53.316Z,9.13
2023-05-20T00:04:53.122Z,9.11
2023-05-20T00:05:53.083Z,9.08
2023-05-20T00:06:53.100Z,9.05
2023-05-20T00:07:53.120Z,9.02
2023-05-20T00:08:53.124Z,9.01
2023-05-20T00:09:53.050Z,9.02
2023-05-20T00:10:53.056Z,9.04
2023-05-20T00:11:53.034Z,9.02
2023-05-20T00:12:52.999Z,9.04
2023-05-20T00:13:53.002Z,9.05
2023-05-20T00:14:53.936Z,9.05
2023-05-20T00:15:52.991Z,9.04
2023-05-20T00:16:52.999Z,9.05
2023-05-20T00:17:52.974Z,9.10
2023-05-20T00:18:52.988Z,9.14
2023-05-20T00:19:52.946Z,9.15
2023-05-20T00:20:52.934Z,9.20
2023-05-20T00:21:52.927Z,9.17
2023-05-20T00:22:52.880Z,9.18
2023-05-20T00:23:52.930Z,9.18
2023-05-20T00:24:52.876Z,9.15
2023-05-20T00:25:52.865Z,9.14
2023-05-20T00:26:52.955Z,9.11
2023-05-20T00:27:52.949Z,9.10
2023-05-20T00:28:52.845Z,9.08
2023-05-20T00:29:52.846Z,9.04
2023-05-20T00:30:52.856Z,9.05
2023-05-20T00:31:52.848Z,9.05
2023-05-20T00:32:52.859Z,9.08
2023-05-20T00:33:52.764Z,9.04
2023-05-20T00:34:52.754Z,9.04
2023-05-20T00:35:52.747Z,9.04
2023-05-20T00:36:52.726Z,9.04
2023-05-20T00:37:52.774Z,9.01
2023-05-20T00:38:52.686Z,9.01
2023-05-20T00:39:52.713Z,9.01
2023-05-20T00:40:52.782Z,8.98
2023-05-20T00:41:52.686Z,8.96
2023-05-20T00:42:52.646Z,8.95
2023-05-20T00:43:52.686Z,8.94
2023-05-20T00:44:52.630Z,8.92
2023-05-20T00:45:52.706Z,8.89
2023-05-20T00:46:52.619Z,8.87
2023-05-20T00:47:52.810Z,8.91
2023-05-20T00:48:52.698Z,8.89
2023-05-20T00:49:52.704Z,8.87
2023-05-20T00:50:52.556Z,8.86
2023-05-20T00:51:52.576Z,8.86
2023-05-20T00:52:52.512Z,8.87
2023-05-20T00:53:52.558Z,8.87
2023-05-20T00:54:52.519Z,8.84
2023-05-20T00:55:52.545Z,8.84
2023-05-20T00:56:52.740Z,8.81
2023-05-20T00:57:52.509Z,8.81
2023-05-20T00:58:52.456Z,8.77
2023-05-20T00:59:52.505Z,8.74
2023-05-20T01:00:52.447Z,8.73
2023-05-20T01:01:52.559Z,8.70
2023-05-20T01:02:52.538Z,8.68
2023-05-20T01:03:52.466Z,8.66
2023-05-20T01:04:52.393Z,8.68
2023-05-20T01:05:52.416Z,8.66
2023-05-20T01:06:52.353Z,8.63
2023-05-20T01:07:52.375Z,8.65
2023-05-20T01:08:52.360Z,8.63
2023-05-20T01:09:52.357Z,8.62
2023-05-20T01:10:52.308Z,8.62
2023-05-20T01:11:52.331Z,8.59
2023-05-20T01:12:52.348Z,8.56
2023-05-20T01:13:52.294Z,8.52
2023-05-20T01:14:52.296Z,8.48
2023-05-20T01:15:52.323Z,8.44
2023-05-20T01:16:52.244Z,8.43
2023-05-20T01:17:52.511Z,8.40
2023-05-20T01:18:52.266Z,8.40
2023-05-20T01:19:52.347Z,8.38
2023-05-20T01:20:52.236Z,8.36
2023-05-20T01:21:52.231Z,8.36
2023-05-20T01:22:52.190Z,8.33
2023-05-20T01:23:52.209Z,8.30
2023-05-20T01:24:52.155Z,8.26
2023-05-20T01:25:52.157Z,8.25
2023-05-20T01:26:52.140Z,8.23
2023-05-20T01:27:52.181Z,8.19
2023-05-20T01:28:52.111Z,8.19
2023-05-20T01:29:52.203Z,8.18
2023-05-20T01:30:52.198Z,8.16
2023-05-20T01:31:52.198Z,8.16
2023-05-20T01:32:52.171Z,8.15
2023-05-20T01:33:52.086Z,8.15
2023-05-20T01:34:52.044Z,8.11
2023-05-20T01:35:52.046Z,8.10
2023-05-20T01:36:52.046Z,8.08
2023-05-20T01:37:52.036Z,8.07
2023-05-20T01:38:51.983Z,8.05
2023-05-20T01:39:52.020Z,8.02
2023-05-20T01:40:51.990Z,8.02
2023-05-20T01:41:51.977Z,8.02
2023-05-20T01:42:51.952Z,8.00
2023-05-20T01:43:52.004Z,7.97
2023-05-20T01:44:51.912Z,7.97
2023-05-20T01:45:51.925Z,7.95
2023-05-20T01:46:51.937Z,7.90
2023-05-20T01:47:51.938Z,7.89
2023-05-20T01:48:51.886Z,7.89
2023-05-20T01:49:52.033Z,7.87
2023-05-20T01:50:51.984Z,7.87
2023-05-20T01:51:51.853Z,7.85
2023-05-20T01:52:51.834Z,7.85
2023-05-20T01:53:51.854Z,7.82
2023-05-20T01:54:51.871Z,7.80
2023-05-20T01:55:51.817Z,7.79
2023-05-20T01:56:51.789Z,7.77
2023-05-20T01:57:51.869Z,7.75
2023-05-20T01:58:51.798Z,7.72
2023-05-20T01:59:51.788Z,7.72
2023-05-20T02:00:51.793Z,7.69
2023-05-20T02:01:51.887Z,7.71
2023-05-20T02:02:51.747Z,7.71
2023-05-20T02:03:51.844Z,7.68
2023-05-20T02:04:51.689Z,7.69
2023-05-20T02:05:51.778Z,7.69
2023-05-20T02:06:51.664Z,7.69
2023-05-20T02:07:51.682Z,7.71
2023-05-20T02:08:51.637Z,7.69
2023-05-20T02:09:52.234Z,7.67
2023-05-20T02:10:51.752Z,7.64
2023-05-20T02:11:51.643Z,7.63
2023-05-20T02:12:51.615Z,7.61
2023-05-20T02:13:51.633Z,7.58
2023-05-20T02:14:51.612Z,7.55
2023-05-20T02:15:51.590Z,7.55
2023-05-20T02:16:51.632Z,7.53
2023-05-20T02:17:51.584Z,7.50
2023-05-20T02:18:51.656Z,7.50
2023-05-20T02:19:51.590Z,7.48
2023-05-20T02:20:51.518Z,7.48
2023-05-20T02:21:51.689Z,7.48
2023-05-20T02:22:51.514Z,7.46
2023-05-20T02:23:51.528Z,7.45
2023-05-20T02:24:51.464Z,7.43
2023-05-20T02:25:51.538Z,7.42
2023-05-20T02:26:51.455Z,7.40
2023-05-20T02:27:51.457Z,7.35
2023-05-20T02:28:51.420Z,7.39
2023-05-20T02:29:51.439Z,7.39
2023-05-20T02:30:51.457Z,7.39
2023-05-20T02:31:51.604Z,7.42
2023-05-20T02:32:51.416Z,7.45
2023-05-20T02:33:51.462Z,7.48
2023-05-20T02:34:51.361Z,7.50
2023-05-20T02:35:51.465Z,7.52
2023-05-20T02:36:51.316Z,7.55
2023-05-20T02:37:51.370Z,7.57
2023-05-20T02:38:51.326Z,7.57
2023-05-20T02:39:51.331Z,7.57
2023-05-20T02:40:51.355Z,7.60
2023-05-20T02:41:51.307Z,7.60
2023-05-20T02:42:51.268Z,7.60
2023-05-20T02:43:51.412Z,7.61
2023-05-20T02:44:51.233Z,7.60
2023-05-20T02:45:51.261Z,7.60
2023-05-20T02:46:51.229Z,7.63
2023-05-20T02:47:51.334Z,7.63
2023-05-20T02:48:51.244Z,7.61
2023-05-20T02:49:51.227Z,7.63
2023-05-20T02:50:51.192Z,7.61
2023-05-20T02:51:51.189Z,7.60
2023-05-20T02:52:51.150Z,7.60
2023-05-20T02:53:51.161Z,7.58
2023-05-20T02:54:51.100Z,7.58
2023-05-20T02:55:51.232Z,7.58
2023-05-20T02:56:51.124Z,7.61
2023-05-20T02:57:51.114Z,7.63
2023-05-20T02:58:51.070Z,7.63
2023-05-20T02:59:51.081Z,7.61
2023-05-20T03:00:51.125Z,7.60
2023-05-20T03:01:51.083Z,7.58
2023-05-20T03:02:51.101Z,7.58
2023-05-20T03:03:51.100Z,7.57
2023-05-20T03:04:51.138Z,7.52
2023-05-20T03:05:50.989Z,7.50
2023-05-20T03:06:50.980Z,7.49
2023-05-20T03:07:50.990Z,7.48
2023-05-20T03:08:50.939Z,7.46
2023-05-20T03:09:50.970Z,7.45
2023-05-20T03:10:50.939Z,7.43
2023-05-20T03:11:50.937Z,7.40
2023-05-20T03:12:50.951Z,7.37
2023-05-20T03:13:50.900Z,7.35
2023-05-20T03:14:50.866Z,7.37
2023-05-20T03:15:51.000Z,7.34
2023-05-20T03:16:50.883Z,7.34
2023-05-20T03:17:50.990Z,7.32
2023-05-20T03:18:50.852Z,7.34
2023-05-20T03:19:50.831Z,7.34
2023-05-20T03:20:51.014Z,7.32
2023-05-20T03:21:50.810Z,7.32
2023-05-20T03:22:50.870Z,7.34
2023-05-20T03:23:50.805Z,7.32
2023-05-20T03:24:50.771Z,7.35
2023-05-20T03:25:50.780Z,7.37
2023-05-20T03:26:50.754Z,7.39
2023-05-20T03:27:50.738Z,7.39
2023-05-20T03:28:50.723Z,7.43
2023-05-20T03:29:50.727Z,7.43
2023-05-20T03:30:50.684Z,7.45
2023-05-20T03:31:51.252Z,7.45
2023-05-20T03:32:51.061Z,7.48
2023-05-20T03:33:50.668Z,7.48
2023-05-20T03:34:50.646Z,7.49
2023-05-20T03:35:50.660Z,7.53
2023-05-20T03:36:50.694Z,7.57
2023-05-20T03:37:50.643Z,7.60
2023-05-20T03:38:50.662Z,7.60
2023-05-20T03:39:50.601Z,7.67
2023-05-20T03:40:50.569Z,7.69
2023-05-20T03:41:50.574Z,7.74
2023-05-20T03:42:50.675Z,7.75
2023-05-20T03:43:50.575Z,7.82
2023-05-20T03:44:50.520Z,7.85
2023-05-20T03:45:50.597Z,7.87
2023-05-20T03:46:50.533Z,7.90
2023-05-20T03:47:50.567Z,7.93
2023-05-20T03:48:50.475Z,7.95
2023-05-20T03:49:50.553Z,7.98
2023-05-20T03:50:50.460Z,7.98
2023-05-20T03:51:50.479Z,7.98
2023-05-20T03:52:50.692Z,7.98
2023-05-20T03:53:50.590Z,7.97
2023-05-20T03:54:50.509Z,7.98
2023-05-20T03:55:50.419Z,8.01
2023-05-20T03:56:50.397Z,8.02
2023-05-20T03:57:50.445Z,8.05
2023-05-20T03:58:50.383Z,8.05
2023-05-20T03:59:50.473Z,8.08
2023-05-20T04:00:50.342Z,8.11
2023-05-20T04:01:50.388Z,8.12
2023-05-20T04:02:50.400Z,8.16
2023-05-20T04:03:50.526Z,8.18
2023-05-20T04:04:50.279Z,8.20
2023-05-20T04:05:50.294Z,8.23
2023-05-20T04:06:50.354Z,8.25
2023-05-20T04:07:50.285Z,8.29
2023-05-20T04:08:50.246Z,8.30
2023-05-20T04:09:50.299Z,8.34
2023-05-20T04:10:50.250Z,8.37
2023-05-20T04:11:50.218Z,8.40
2023-05-20T04:12:50.304Z,8.41
2023-05-20T04:13:50.252Z,8.45
2023-05-20T04:14:50.207Z,8.48
2023-05-20T04:15:50.240Z,8.52
2023-05-20T04:16:50.281Z,8.56
2023-05-20T04:17:50.233Z,8.58
2023-05-20T04:18:50.131Z,8.62
2023-05-20T04:19:50.179Z,8.63
2023-05-20T04:20:50.122Z,8.66
2023-05-20T04:21:50.140Z,8.68
2023-05-20T04:22:50.114Z,8.71
2023-05-20T04:23:50.098Z,8.76
2023-05-20T04:24:50.056Z,8.80
2023-05-20T04:25:50.166Z,8.84
2023-05-20T04:26:50.043Z,8.87
2023-05-20T04:27:50.065Z,8.92
2023-05-20T04:28:50.023Z,8.96
2023-05-20T04:29:50.262Z,9.01
2023-05-20T04:30:50.027Z,9.05
2023-05-20T04:31:50.111Z,9.10
2023-05-20T04:32:50.475Z,9.13
2023-05-20T04:33:49.964Z,9.17
2023-05-20T04:34:49.972Z,9.20
2023-05-20T04:35:49.924Z,9.21
2023-05-20T04:36:49.967Z,9.26
2023-05-20T04:37:49.903Z,9.32
2023-05-20T04:38:49.933Z,9.38
2023-05-20T04:39:49.908Z,9.42
2023-05-20T04:40:49.906Z,9.48
2023-05-20T04:41:49.865Z,9.54
2023-05-20T04:42:49.938Z,9.60
2023-05-20T04:43:49.828Z,9.65
2023-05-20T04:44:49.848Z,9.69
2023-05-20T04:45:49.821Z,9.75
2023-05-20T04:46:49.865Z,9.81
2023-05-20T04:47:49.853Z,9.87
2023-05-20T04:48:49.798Z,9.93
2023-05-20T04:49:49.780Z,9.99
2023-05-20T04:50:49.800Z,10.04
2023-05-20T04:51:49.742Z,10.09
2023-05-20T04:52:49.763Z,10.14
2023-05-20T04:53:49.909Z,10.18
2023-05-20T04:54:49.964Z,10.26
2023-05-20T04:55:49.704Z,10.30
2023-05-20T04:56:49.723Z,10.36
2023-05-20T04:57:49.708Z,10.41
2023-05-20T04:58:49.688Z,10.45
2023-05-20T04:59:49.665Z,10.51
2023-05-20T05:00:49.677Z,10.56
2023-05-20T05:01:49.758Z,10.61
2023-05-20T05:02:49.763Z,10.64
2023-05-20T05:03:49.701Z,10.68
2023-05-20T05:04:49.705Z,10.71
2023-05-20T05:05:49.593Z,10.76
2023-05-20T05:06:49.643Z,10.81
2023-05-20T05:07:49.583Z,10.85
2023-05-20T05:08:49.575Z,10.86
2023-05-20T05:09:49.541Z,10.91
2023-05-20T05:10:49.552Z,10.94
2023-05-20T05:11:49.634Z,10.96
2023-05-20T05:12:49.529Z,10.99
2023-05-20T05:13:49.682Z,11.03
2023-05-20T05:14:49.536Z,11.07
2023-05-20T05:15:49.605Z,11.11
2023-05-20T05:16:49.479Z,11.18
2023-05-20T05:17:49.481Z,11.21
2023-05-20T05:18:49.537Z,11.25
2023-05-20T05:19:49.450Z,11.29
2023-05-20T05:20:49.569Z,11.36
2023-05-20T05:21:49.468Z,11.39
2023-05-20T05:22:49.457Z,11.43
2023-05-20T05:23:49.374Z,11.49
2023-05-20T05:24:49.452Z,11.55
2023-05-20T05:25:49.408Z,11.61
2023-05-20T05:26:49.368Z,11.65
2023-05-20T05:27:49.414Z,11.70
2023-05-20T05:28:49.626Z,11.76
2023-05-20T05:29:49.314Z,11.80
2023-05-20T05:30:49.396Z,11.88
2023-05-20T05:31:49.333Z,11.95
2023-05-20T05:32:49.601Z,11.99
2023-05-20T05:33:49.299Z,12.05
2023-05-20T05:34:49.371Z,12.12
2023-05-20T05:35:49.348Z,12.19
2023-05-20T05:36:49.261Z,12.21
2023-05-20T05:37:49.237Z,12.28
2023-05-20T05:38:49.274Z,12.34
2023-05-20T05:39:49.216Z,12.39
2023-05-20T05:40:49.211Z,12.46
2023-05-20T05:41:49.188Z,12.52
2023-05-20T05:42:49.299Z,12.56
2023-05-20T05:43:49.164Z,12.64
2023-05-20T05:44:49.191Z,12.70
2023-05-20T05:45:49.284Z,12.75
2023-05-20T05:46:49.288Z,12.82
2023-05-20T05:47:49.201Z,12.87
2023-05-20T05:48:49.161Z,12.92
2023-05-20T05:49:49.127Z,12.97
2023-05-20T05:50:49.090Z,13.04
2023-05-20T05:51:49.054Z,13.10
2023-05-20T05:52:49.089Z,13.15
2023-05-20T05:53:49.028Z,13.22
2023-05-20T05:54:49.606Z,13.29
2023-05-20T05:55:49.288Z,13.32
2023-05-20T05:56:49.050Z,13.36
2023-05-20T05:57:49.036Z,13.42
2023-05-20T05:58:49.232Z,13.46
2023-05-20T05:59:48.965Z,13.51
2023-05-20T06:00:49.157Z,13.57
2023-05-20T06:01:49.108Z,13.62
2023-05-20T06:02:49.211Z,13.67
2023-05-20T06:03:49.052Z,13.71
2023-05-20T06:04:48.985Z,13.78
2023-05-20T06:05:48.903Z,13.84
2023-05-20T06:06:48.919Z,13.91
2023-05-20T06:07:48.958Z,13.96
2023-05-20T06:08:48.911Z,14.03
2023-05-20T06:09:48.909Z,14.07
2023-05-20T06:10:48.913Z,14.12
2023-05-20T06:11:49.014Z,14.18
2023-05-20T06:12:48.848Z,14.27
2023-05-20T06:13:48.843Z,14.35
2023-05-20T06:14:48.840Z,14.45
2023-05-20T06:15:48.936Z,14.51
2023-05-20T06:16:48.992Z,14.58
2023-05-20T06:17:48.786Z,14.62
2023-05-20T06:18:48.824Z,14.70
2023-05-20T06:19:48.748Z,14.78
2023-05-20T06:20:48.798Z,14.83
2023-05-20T06:21:48.747Z,14.86
2023-05-20T06:22:48.759Z,14.92
2023-05-20T06:23:48.701Z,14.96
2023-05-20T06:24:48.741Z,15.03
2023-05-20T06:25:48.754Z,15.11
2023-05-20T06:26:48.697Z,15.17
2023-05-20T06:27:49.021Z,15.23
2023-05-20T06:28:48.692Z,15.31
2023-05-20T06:29:48.640Z,15.41
2023-05-20T06:30:48.771Z,15.49
2023-05-20T06:31:48.620Z,15.60
2023-05-20T06:32:48.662Z,15.67
2023-05-20T06:33:48.600Z,15.78
2023-05-20T06:34:48.637Z,15.87
2023-05-20T06:35:49.352Z,15.89
2023-05-20T06:36:48.659Z,15.92
2023-05-20T06:37:48.750Z,15.93
2023-05-20T06:38:48.560Z,15.97
2023-05-20T06:39:48.557Z,16.05
2023-05-20T06:40:48.549Z,16.09
2023-05-20T06:41:48.493Z,16.12
2023-05-20T06:42:48.523Z,16.15
2023-05-20T06:43:49.104Z,16.23
2023-05-20T06:44:48.516Z,16.20
2023-05-20T06:45:48.457Z,16.24
2023-05-20T06:46:48.527Z,16.20
2023-05-20T06:47:48.472Z,16.24
2023-05-20T06:48:48.484Z,16.21
2023-05-20T06:49:48.413Z,16.21
2023-05-20T06:50:48.509Z,16.27
2023-05-20T06:51:48.416Z,16.31
2023-05-20T06:52:48.390Z,16.33
2023-05-20T06:53:48.356Z,16.34
2023-05-20T06:54:48.370Z,16.41
2023-05-20T06:55:48.390Z,16.49
2023-05-20T06:56:48.475Z,16.50
2023-05-20T06:57:48.490Z,16.49
2023-05-20T06:58:48.327Z,16.50
2023-05-20T06:59:48.284Z,16.58
2023-05-20T07:00:48.312Z,16.64
2023-05-20T07:01:48.287Z,16.71
2023-05-20T07:02:48.340Z,16.71
2023-05-20T07:03:48.298Z,16.78
2023-05-20T07:04:48.250Z,16.85
2023-05-20T07:05:52.468Z,16.88
2023-05-20T07:06:48.225Z,16.91
2023-05-20T07:07:48.207Z,16.97
2023-05-20T07:08:48.196Z,17.06
2023-05-20T07:09:48.172Z,17.15
2023-05-20T07:10:48.222Z,17.22
2023-05-20T07:11:48.152Z,17.34
2023-05-20T07:12:48.166Z,17.36
2023-05-20T07:13:48.238Z,17.41
2023-05-20T07:14:48.152Z,17.48
2023-05-20T07:15:48.195Z,17.52
2023-05-20T07:16:48.237Z,17.62
2023-05-20T07:17:48.392Z,17.75
2023-05-20T07:18:48.139Z,17.82
2023-05-20T07:19:48.059Z,17.79
2023-05-20T07:20:48.129Z,17.71
2023-05-20T07:21:48.045Z,17.48
2023-05-20T07:22:48.060Z,17.31
2023-05-20T07:23:48.055Z,17.22
2023-05-20T07:24:48.035Z,17.12
2023-05-20T07:25:48.002Z,17.00
2023-05-20T07:26:48.020Z,16.98
2023-05-20T07:27:48.103Z,16.98
2023-05-20T07:28:47.980Z,16.97
2023-05-20T07:29:47.947Z,16.96
2023-05-20T07:30:47.974Z,16.97
2023-05-20T07:31:47.943Z,16.94
2023-05-20T07:32:47.955Z,16.97
2023-05-20T07:33:47.946Z,17.01
2023-05-20T07:34:47.936Z,17.06
2023-05-20T07:35:47.954Z,17.08
2023-05-20T07:36:47.915Z,17.11
2023-05-20T07:37:48.171Z,17.12
2023-05-20T07:39:00.539Z,17.15
2023-05-20T07:39:49.009Z,17.16
2023-05-20T07:40:47.856Z,17.14
2023-05-20T07:41:47.857Z,17.00
2023-05-20T07:42:47.856Z,16.93
2023-05-20T07:43:47.795Z,16.89
2023-05-20T07:44:47.804Z,16.93
2023-05-20T07:45:47.819Z,16.96
2023-05-20T07:46:47.789Z,17.00
2023-05-20T07:47:47.810Z,17.03
2023-05-20T07:48:47.772Z,17.07
2023-05-20T07:49:47.737Z,17.12
2023-05-20T07:50:47.762Z,17.16
2023-05-20T07:51:47.709Z,17.18
2023-05-20T07:52:56.072Z,17.21
2023-05-20T07:53:48.688Z,17.18
2023-05-20T07:54:47.693Z,17.15
2023-05-20T07:55:47.657Z,17.01
2023-05-20T07:56:47.761Z,16.94
2023-05-20T07:57:48.100Z,16.93
2023-05-20T07:58:47.804Z,16.93
2023-05-20T07:59:47.660Z,16.88
2023-05-20T08:00:47.617Z,16.88
2023-05-20T08:01:47.666Z,16.89
2023-05-20T08:02:47.695Z,16.91
2023-05-20T08:03:47.687Z,16.93
2023-05-20T08:04:47.592Z,16.88
2023-05-20T08:05:47.542Z,16.79
2023-05-20T08:06:47.561Z,16.73
2023-05-20T08:07:47.558Z,16.66
2023-05-20T08:08:47.547Z,16.70
2023-05-20T08:09:47.535Z,16.79
2023-05-20T08:10:47.510Z,16.89
2023-05-20T08:11:47.761Z,16.89
2023-05-20T08:12:47.700Z,16.85
2023-05-20T08:13:47.470Z,16.86
2023-05-20T08:14:47.816Z,16.94
2023-05-20T08:15:47.438Z,17.03
2023-05-20T08:16:47.967Z,17.03
2023-05-20T08:17:47.654Z,16.94
2023-05-20T08:18:47.694Z,16.89
2023-05-20T08:19:47.713Z,16.85
2023-05-20T08:20:47.542Z,16.81
2023-05-20T08:21:47.743Z,16.81
2023-05-20T08:22:47.971Z,16.86
2023-05-20T08:23:47.554Z,16.94
2023-05-20T08:24:47.382Z,17.03
2023-05-20T08:25:47.417Z,17.15
2023-05-20T08:26:47.326Z,17.23
2023-05-20T08:27:47.329Z,17.36
2023-05-20T08:28:47.324Z,17.49
2023-05-20T08:29:47.331Z,17.59
2023-05-20T08:30:47.310Z,17.56
2023-05-20T08:31:47.256Z,17.59
2023-05-20T08:32:47.320Z,17.62
2023-05-20T08:33:47.231Z,17.52
2023-05-20T08:34:47.233Z,17.55
2023-05-20T08:35:47.208Z,17.62
2023-05-20T08:36:47.225Z,17.71
2023-05-20T08:37:47.174Z,17.82
2023-05-20T08:38:47.866Z,17.78
2023-05-20T08:39:47.177Z,17.74
2023-05-20T08:40:47.167Z,17.79
2023-05-20T08:41:47.156Z,17.89
2023-05-20T08:42:47.139Z,17.92
2023-05-20T08:43:47.167Z,17.95
2023-05-20T08:44:47.109Z,17.96
2023-05-20T08:45:47.147Z,17.97
2023-05-20T08:46:47.186Z,17.97
2023-05-20T08:47:47.128Z,17.96
2023-05-20T08:48:47.065Z,17.96
2023-05-20T08:49:47.076Z,17.96
2023-05-20T08:50:47.151Z,17.99
2023-05-20T08:51:47.060Z,18.03
2023-05-20T08:52:47.051Z,18.08
2023-05-20T08:53:47.069Z,17.99
2023-05-20T08:54:47.016Z,17.99
2023-05-20T08:55:47.014Z,17.93
2023-05-20T08:56:47.003Z,17.90
2023-05-20T08:57:47.026Z,17.84
2023-05-20T08:58:46.970Z,17.84
2023-05-20T08:59:47.174Z,17.86
2023-05-20T09:00:46.986Z,17.86
2023-05-20T09:01:46.966Z,17.95
2023-05-20T09:02:46.938Z,18.03
2023-05-20T09:03:46.904Z,18.15
2023-05-20T09:04:46.918Z,18.25
2023-05-20T09:05:47.156Z,18.20
2023-05-20T09:06:46.873Z,18.18
2023-05-20T09:07:46.873Z,18.17
2023-05-20T09:08:46.825Z,18.14
2023-05-20T09:09:46.850Z,18.05
2023-05-20T09:10:46.819Z,18.00
2023-05-20T09:11:46.944Z,17.99
2023-05-20T09:12:46.820Z,17.95
2023-05-20T09:13:46.820Z,17.92
2023-05-20T09:14:47.352Z,17.95
2023-05-20T09:15:47.050Z,17.89
2023-05-20T09:16:46.744Z,17.99
2023-05-20T09:17:46.805Z,18.15
2023-05-20T09:18:46.783Z,18.35
2023-05-20T09:19:46.761Z,18.54
2023-05-20T09:20:47.850Z,18.67
2023-05-20T09:21:47.129Z,18.60
2023-05-20T09:22:47.815Z,18.44
2023-05-20T09:23:46.682Z,18.47
2023-05-20T09:24:47.196Z,18.45
2023-05-20T09:25:46.651Z,18.41
2023-05-20T09:26:46.663Z,18.45
2023-05-20T09:27:46.625Z,18.36
2023-05-20T09:28:46.690Z,18.39
2023-05-20T09:29:46.941Z,18.48
2023-05-20T09:30:46.810Z,18.65
2023-05-20T09:31:46.939Z,18.78
2023-05-20T09:32:46.647Z,18.88
2023-05-20T09:33:46.599Z,18.94
2023-05-20T09:34:46.624Z,19.04
2023-05-20T09:35:46.573Z,19.14
2023-05-20T09:36:46.575Z,19.25
2023-05-20T09:37:46.566Z,19.40
2023-05-20T09:38:46.506Z,19.51
2023-05-20T09:39:46.563Z,19.66
2023-05-20T09:40:46.486Z,19.83
2023-05-20T09:41:46.489Z,19.92
2023-05-20T09:42:46.447Z,19.96
2023-05-20T09:43:46.454Z,20.03
2023-05-20T09:44:46.456Z,20.11
2023-05-20T09:45:47.072Z,20.20
2023-05-20T09:46:46.435Z,20.23
2023-05-20T09:47:46.491Z,20.14
2023-05-20T09:48:46.376Z,19.87
2023-05-20T09:49:46.376Z,19.91
2023-05-20T09:50:46.343Z,19.94
2023-05-20T09:51:46.393Z,20.01
2023-05-20T09:52:46.330Z,19.99
2023-05-20T09:53:46.413Z,19.91
2023-05-20T09:54:46.307Z,19.73
2023-05-20T09:55:46.320Z,19.77
2023-05-20T09:56:46.291Z,19.86
2023-05-20T09:57:46.296Z,19.91
2023-05-20T09:58:46.258Z,19.88
2023-05-20T09:59:46.309Z,19.94
2023-05-20T10:00:46.409Z,19.84
2023-05-20T10:01:46.485Z,19.86
2023-05-20T10:02:46.312Z,19.95
2023-05-20T10:03:46.320Z,20.08
2023-05-20T10:04:46.240Z,20.23
2023-05-20T10:05:46.212Z,20.21
2023-05-20T10:06:46.172Z,20.17
2023-05-20T10:07:46.198Z,20.13
2023-05-20T10:08:46.135Z,20.16
2023-05-20T10:09:46.175Z,20.18
2023-05-20T10:10:46.138Z,20.21
2023-05-20T10:11:46.261Z,20.28
2023-05-20T10:12:46.113Z,20.31
2023-05-20T10:13:46.114Z,20.24
2023-05-20T10:14:46.096Z,20.23
2023-05-20T10:15:46.154Z,20.28
2023-05-20T10:16:46.075Z,20.35
2023-05-20T10:17:46.184Z,20.38
2023-05-20T10:18:46.388Z,20.33
2023-05-20T10:19:46.056Z,20.28
2023-05-20T10:20:46.029Z,20.29
2023-05-20T10:21:46.163Z,20.20
2023-05-20T10:22:45.985Z,20.05
2023-05-20T10:23:46.005Z,20.03
2023-05-20T10:24:46.040Z,20.11
2023-05-20T10:25:46.017Z,20.08
2023-05-20T10:26:45.941Z,20.08
2023-05-20T10:27:45.971Z,20.16
2023-05-20T10:28:45.963Z,20.23
2023-05-20T10:29:46.510Z,20.26
2023-05-20T10:30:45.911Z,20.31
2023-05-20T10:31:45.925Z,20.23
2023-05-20T10:32:46.065Z,20.05
2023-05-20T10:33:45.973Z,20.03
2023-05-20T10:34:45.865Z,20.08
2023-05-20T10:35:45.865Z,19.96
2023-05-20T10:36:45.856Z,19.94
2023-05-20T10:37:45.842Z,19.86
2023-05-20T10:38:45.813Z,19.87
2023-05-20T10:39:45.820Z,19.98
2023-05-20T10:40:46.267Z,20.05
2023-05-20T10:41:46.122Z,19.83
2023-05-20T10:42:45.900Z,19.50
2023-05-20T10:43:45.770Z,19.29
2023-05-20T10:44:45.747Z,19.41
2023-05-20T10:45:45.778Z,19.51
2023-05-20T10:47:06.703Z,19.69
2023-05-20T10:47:46.778Z,19.80
2023-05-20T10:48:45.818Z,19.95
2023-05-20T10:49:45.723Z,20.08
2023-05-20T10:50:45.677Z,20.20
2023-05-20T10:51:45.693Z,20.33
2023-05-20T10:52:45.649Z,20.39
2023-05-20T10:53:45.655Z,20.51
2023-05-20T10:54:45.618Z,20.62
2023-05-20T10:55:45.640Z,20.69
2023-05-20T10:56:45.609Z,20.72
2023-05-20T10:57:45.650Z,20.67
2023-05-20T10:58:45.579Z,20.73
2023-05-20T10:59:45.594Z,20.76
2023-05-20T11:00:45.706Z,20.76
2023-05-20T11:01:46.337Z,20.59
2023-05-20T11:02:45.665Z,20.51
2023-05-20T11:03:46.147Z,20.50
2023-05-20T11:04:45.510Z,20.55
2023-05-20T11:05:45.516Z,20.43
2023-05-20T11:06:45.516Z,20.24
2023-05-20T11:07:45.539Z,20.21
2023-05-20T11:08:45.561Z,20.21
2023-05-20T11:09:45.593Z,19.96
2023-05-20T11:10:45.464Z,19.81
2023-05-20T11:11:45.461Z,19.76
2023-05-20T11:12:45.455Z,19.83
2023-05-20T11:13:45.681Z,19.78
2023-05-20T11:14:45.398Z,19.86
2023-05-20T11:15:45.804Z,20.01
2023-05-20T11:16:45.576Z,20.05
2023-05-20T11:17:45.457Z,20.06
2023-05-20T11:18:45.483Z,20.26
2023-05-20T11:19:45.368Z,20.47
2023-05-20T11:20:45.340Z,20.50
2023-05-20T11:21:46.123Z,20.69
2023-05-20T11:22:45.322Z,20.85
2023-05-20T11:23:45.389Z,20.89
2023-05-20T11:24:45.332Z,20.92
2023-05-20T11:25:45.292Z,20.99
2023-05-20T11:26:45.258Z,21.16
2023-05-20T11:27:45.294Z,21.12
2023-05-20T11:28:45.275Z,21.17
2023-05-20T11:29:45.275Z,21.19
2023-05-20T11:30:45.247Z,21.29
2023-05-20T11:31:45.244Z,21.46
2023-05-20T11:32:45.255Z,21.69
2023-05-20T11:33:45.203Z,21.68
2023-05-20T11:34:45.168Z,21.62
2023-05-20T11:35:45.234Z,21.71
2023-05-20T11:36:45.217Z,21.86
2023-05-20T11:37:45.190Z,22.02
2023-05-20T11:38:45.193Z,22.06
2023-05-20T11:39:45.269Z,22.07
2023-05-20T11:40:51.212Z,22.17
2023-05-20T11:41:46.145Z,22.27
2023-05-20T11:42:45.206Z,22.39
2023-05-20T11:43:45.192Z,22.40
2023-05-20T11:44:45.074Z,22.24
2023-05-20T11:45:45.107Z,22.18
2023-05-20T11:46:45.139Z,22.17
2023-05-20T11:47:45.114Z,22.28
2023-05-20T11:48:45.028Z,22.37
2023-05-20T11:49:45.131Z,22.47
2023-05-20T11:50:45.046Z,22.58
2023-05-20T11:51:45.338Z,22.57
2023-05-20T11:52:44.957Z,22.51
2023-05-20T11:53:45.058Z,22.10
2023-05-20T11:54:44.942Z,21.69
2023-05-20T11:55:44.964Z,21.47
2023-05-20T11:56:44.985Z,21.29
2023-05-20T11:57:45.591Z,21.22
2023-05-20T11:58:44.933Z,21.22
2023-05-20T11:59:44.917Z,21.38
2023-05-20T12:00:51.781Z,21.50
2023-05-20T12:01:45.991Z,21.61
2023-05-20T12:02:45.073Z,21.68
2023-05-20T12:03:45.181Z,21.79
2023-05-20T12:04:45.164Z,21.79
2023-05-20T12:05:44.909Z,21.69
2023-05-20T12:06:44.809Z,21.62
2023-05-20T12:07:44.833Z,21.49
2023-05-20T12:08:44.858Z,21.34
2023-05-20T12:09:44.822Z,21.22
2023-05-20T12:10:44.782Z,21.24
2023-05-20T12:11:44.878Z,21.22
2023-05-20T12:12:44.769Z,21.34
2023-05-20T12:13:45.495Z,21.44
2023-05-20T12:14:44.756Z,21.52
2023-05-20T12:15:45.480Z,21.37
2023-05-20T12:16:44.695Z,21.32
2023-05-20T12:17:44.761Z,21.38
2023-05-20T12:18:44.749Z,21.21
2023-05-20T12:19:44.939Z,21.09
2023-05-20T12:20:44.673Z,20.94
2023-05-20T12:21:44.683Z,20.35
2023-05-20T12:22:44.737Z,20.23
2023-05-20T12:23:44.728Z,20.23
2023-05-20T12:24:44.649Z,20.23
2023-05-20T12:25:44.707Z,20.26
2023-05-20T12:26:44.611Z,20.32
2023-05-20T12:27:44.606Z,20.39
2023-05-20T12:28:44.611Z,20.50
2023-05-20T12:29:45.007Z,20.55
2023-05-20T12:30:44.617Z,20.51
2023-05-20T12:31:44.595Z,20.57
2023-05-20T12:32:44.824Z,20.52
2023-05-20T12:33:45.267Z,20.36
2023-05-20T12:34:44.519Z,20.38
2023-05-20T12:35:44.534Z,20.33
2023-05-20T12:36:44.472Z,20.33
2023-05-20T12:37:44.533Z,20.26
2023-05-20T12:38:44.534Z,20.10
2023-05-20T12:39:44.662Z,20.14
2023-05-20T12:40:44.462Z,20.24
2023-05-20T12:41:44.445Z,20.38
2023-05-20T12:42:44.420Z,20.51
2023-05-20T12:43:44.468Z,20.59
2023-05-20T12:44:44.493Z,20.72
2023-05-20T12:45:44.487Z,20.61
2023-05-20T12:46:44.407Z,20.55
2023-05-20T12:47:44.574Z,20.62
2023-05-20T12:48:44.336Z,20.67
2023-05-20T12:49:44.350Z,20.64
2023-05-20T12:50:44.370Z,20.59
2023-05-20T12:51:44.521Z,20.58
2023-05-20T12:52:44.514Z,20.43
2023-05-20T12:53:44.303Z,20.28
2023-05-20T12:54:44.276Z,20.05
2023-05-20T12:55:44.298Z,19.86
2023-05-20T12:56:44.242Z,19.78
2023-05-20T12:57:44.254Z,19.69
2023-05-20T12:58:44.216Z,19.61
2023-05-20T12:59:44.205Z,19.56
2023-05-20T13:00:44.249Z,19.55
2023-05-20T13:01:44.182Z,19.37
2023-05-20T13:02:44.277Z,19.36